Time;durP1;ratioP1;P1;durP2;ratioP2;P2;SDS_P1;SDS_P2;PMS_P1;PMS_P2;Temp;Humidity;BMP_temperature;BMP_pressure;BME280_temperature;BME280_humidity;BME280_pressure;Samples;Min_cycle;Max_cycle;Signal;HPM_P1;HPM_P2
2021/07/02 00:00:54;;;;;;;5.20;2.80;;;12.30;99.90;;;;;;5104174;28;19923;-68
2021/07/02 00:03:20;;;;;;;;;;;12.30;99.90;;;;;;5105518;28;20051;-69
2021/07/02 00:05:45;;;;;;;7.13;3.05;;;12.30;99.90;;;;;;5110026;28;19959;-68
2021/07/02 00:08:11;;;;;;;;;;;12.30;99.90;;;;;;5125926;28;20114;-67
2021/07/02 00:10:36;;;;;;;5.22;3.22;;;12.30;99.90;;;;;;5125914;28;19916;-68
2021/07/02 00:13:02;;;;;;;;;;;12.30;99.90;;;;;;5126123;28;20042;-68
2021/07/02 00:15:27;;;;;;;4.43;2.95;;;12.30;99.90;;;;;;5124608;27;19928;-68
2021/07/02 00:17:53;;;;;;;;;;;12.30;99.90;;;;;;5117915;28;20080;-68
2021/07/02 00:20:18;;;;;;;6.68;2.88;;;12.30;99.90;;;;;;5109203;28;19958;-68
2021/07/02 00:22:44;;;;;;;;;;;12.20;99.90;;;;;;5112242;28;20047;-68
2021/07/02 00:25:12;;;;;;;11.68;3.00;;;12.20;99.90;;;;;;5110533;28;19973;-68
2021/07/02 00:27:37;;;;;;;5.43;3.58;;;12.20;99.90;;;;;;5112311;27;20044;-68
2021/07/02 00:30:04;;;;;;;;;;;12.30;99.90;;;;;;5112538;28;20059;-68
2021/07/02 00:32:29;;;;;;;3.60;2.38;;;12.30;99.90;;;;;;5109783;28;20458;-68
2021/07/02 00:34:55;;;;;;;;;;;12.30;99.90;;;;;;5104641;28;20032;-68
2021/07/02 00:37:20;;;;;;;8.65;3.35;;;12.30;99.90;;;;;;5110349;28;19927;-68
2021/07/02 00:39:46;;;;;;;;;;;12.30;99.90;;;;;;5110617;28;20043;-69
2021/07/02 00:42:11;;;;;;;5.10;2.75;;;12.30;99.90;;;;;;5110800;28;19915;-69
2021/07/02 00:44:41;;;;;;;;;;;12.30;99.90;;;;;;5111963;28;20929;-69
2021/07/02 00:47:07;;;;;;;7.05;3.35;;;12.40;99.90;;;;;;5110173;28;19923;-69
2021/07/02 00:49:34;;;;;;;7.00;3.50;;;12.30;99.90;;;;;;5109838;28;20100;-69
2021/07/02 00:52:00;;;;;;;6.55;4.03;;;12.30;99.90;;;;;;5111022;28;20109;-70
2021/07/02 00:54:26;;;;;;;6.70;3.45;;;12.20;99.90;;;;;;5111111;28;20039;-70
2021/07/02 00:56:52;;;;;;;;;;;12.20;99.90;;;;;;5111109;28;20522;-69
2021/07/02 00:59:17;;;;;;;7.55;4.60;;;12.20;99.90;;;;;;5111427;28;20150;-70
2021/07/02 01:01:43;;;;;;;;;;;12.20;99.90;;;;;;5109532;28;20032;-70
2021/07/02 01:04:08;;;;;;;6.63;4.22;;;12.20;99.90;;;;;;5110505;28;20323;-70
2021/07/02 01:06:34;;;;;;;;;;;12.30;99.90;;;;;;5102700;28;20116;-68
2021/07/02 01:08:59;;;;;;;6.75;4.07;;;12.20;99.90;;;;;;5111247;28;19919;-70
2021/07/02 01:11:25;;;;;;;;;;;12.30;99.90;;;;;;5110852;28;20039;-70
2021/07/02 01:13:50;;;;;;;10.90;5.15;;;12.20;99.90;;;;;;5110745;28;19916;-69
2021/07/02 01:16:16;;;;;;;;;;;12.20;99.90;;;;;;5110050;28;20048;-70
2021/07/02 01:18:43;;;;;;;7.22;4.20;;;12.20;99.90;;;;;;5110115;28;19916;-70
2021/07/02 01:21:12;;;;;;;8.02;4.55;;;12.30;99.90;;;;;;5110492;28;20472;-68
2021/07/02 01:23:37;;;;;;;6.68;4.40;;;12.30;99.90;;;;;;5110470;28;20584;-69
2021/07/02 01:26:03;;;;;;;;;;;12.30;99.90;;;;;;5110315;28;20127;-69
2021/07/02 01:28:29;;;;;;;9.00;5.28;;;12.20;99.90;;;;;;5110572;28;20252;-70
2021/07/02 01:30:54;;;;;;;;;;;12.20;99.90;;;;;;5104934;27;20036;-70
2021/07/02 01:33:20;;;;;;;11.25;5.38;;;12.20;99.90;;;;;;5108437;28;19995;-70
2021/07/02 01:35:45;;;;;;;;;;;12.20;99.90;;;;;;5102775;28;20071;-69
2021/07/02 01:38:11;;;;;;;9.63;5.75;;;12.20;99.90;;;;;;5110204;28;19923;-69
2021/07/02 01:40:37;;;;;;;;;;;12.20;99.90;;;;;;5110140;28;20474;-70
2021/07/02 01:43:03;;;;;;;8.10;5.22;;;12.20;99.90;;;;;;5109129;28;19939;-70
2021/07/02 01:45:28;;;;;;;8.13;5.50;;;12.20;99.90;;;;;;5109505;28;20075;-70
2021/07/02 01:47:54;;;;;;;;;;;12.30;99.90;;;;;;5109402;28;20070;-70
2021/07/02 01:50:21;;;;;;;7.78;4.93;;;12.30;99.90;;;;;;5110578;28;20367;-69
2021/07/02 01:52:48;;;;;;;10.13;5.65;;;12.30;99.90;;;;;;5109842;28;20473;-69
2021/07/02 01:55:13;;;;;;;8.80;5.57;;;12.30;99.90;;;;;;5109599;28;20047;-69
2021/07/02 01:57:39;;;;;;;;;;;12.30;99.90;;;;;;5111213;28;20039;-70
2021/07/02 02:00:05;;;;;;;9.35;6.20;;;12.20;99.90;;;;;;5110551;28;19919;-69
2021/07/02 02:02:32;;;;;;;9.45;5.95;;;12.20;99.90;;;;;;5109089;28;20040;-70
2021/07/02 02:04:58;;;;;;;14.68;7.13;;;12.30;99.90;;;;;;5102401;28;20076;-70
2021/07/02 02:07:23;;;;;;;;;;;12.20;99.90;;;;;;5110316;28;20120;-70
2021/07/02 02:09:49;;;;;;;10.48;6.68;;;12.20;99.90;;;;;;5111130;28;19989;-69
2021/07/02 02:12:15;;;;;;;;;;;12.20;99.90;;;;;;5109544;28;20043;-69
2021/07/02 02:14:40;;;;;;;9.50;5.43;;;12.20;99.90;;;;;;5109988;28;20463;-70
2021/07/02 02:17:06;;;;;;;;;;;12.20;99.90;;;;;;5108455;28;20415;-69
2021/07/02 02:19:32;;;;;;;14.85;7.35;;;12.20;99.90;;;;;;5109516;28;19915;-69
2021/07/02 02:21:58;;;;;;;11.25;6.60;;;12.10;99.90;;;;;;5109318;28;20099;-70
2021/07/02 02:24:23;;;;;;;;;;;12.10;99.90;;;;;;5110536;28;20040;-69
2021/07/02 02:26:49;;;;;;;11.15;6.68;;;12.10;99.90;;;;;;5103161;28;19919;-69
2021/07/02 02:29:14;;;;;;;;;;;12.20;99.90;;;;;;5109335;28;20059;-70
2021/07/02 02:31:40;;;;;;;9.25;5.47;;;12.20;99.90;;;;;;5107636;28;20117;-69
2021/07/02 02:34:05;;;;;;;;;;;12.20;99.90;;;;;;5109807;28;20372;-69
2021/07/02 02:36:31;;;;;;;7.45;5.35;;;12.20;99.90;;;;;;5100752;28;19923;-69
2021/07/02 02:38:56;;;;;;;;;;;12.20;99.90;;;;;;5109685;28;20044;-70
2021/07/02 02:41:23;;;;;;;11.00;5.93;;;12.20;99.90;;;;;;5108601;28;19920;-69
2021/07/02 02:43:49;;;;;;;10.55;5.68;;;12.20;99.90;;;;;;5107286;28;20047;-70
2021/07/02 02:46:14;;;;;;;;;;;12.10;99.90;;;;;;5097236;28;20051;-69
2021/07/02 02:48:40;;;;;;;11.73;6.75;;;12.20;99.90;;;;;;5086995;28;19959;-69
2021/07/02 02:51:06;;;;;;;;;;;12.10;99.90;;;;;;5089232;28;20037;-69
2021/07/02 02:53:31;;;;;;;10.10;5.55;;;12.20;99.90;;;;;;5088732;28;19958;-70
2021/07/02 02:55:57;;;;;;;;;;;12.20;99.90;;;;;;5086277;28;20066;-69
2021/07/02 02:58:23;;;;;;;13.80;4.97;;;12.20;99.90;;;;;;5068593;28;19986;-70
2021/07/02 03:00:48;;;;;;;;;;;12.20;99.90;;;;;;5072983;28;20036;-70
2021/07/02 03:03:14;;;;;;;8.07;4.93;;;12.20;99.90;;;;;;5088168;28;19966;-69
2021/07/02 03:05:39;;;;;;;;;;;12.20;99.90;;;;;;5093338;28;20039;-72
2021/07/02 03:08:05;;;;;;;18.67;7.00;;;12.20;99.90;;;;;;5109430;28;19927;-67
2021/07/02 03:10:31;;;;;;;;;;;12.20;99.90;;;;;;5107435;28;20069;-68
2021/07/02 03:12:58;;;;;;;5.65;3.97;;;12.20;99.90;;;;;;5108630;28;20272;-69
2021/07/02 03:15:24;;;;;;;6.90;4.47;;;12.20;99.90;;;;;;5105465;28;20036;-69
2021/07/02 03:17:49;;;;;;;;;;;12.20;99.90;;;;;;5088675;28;20656;-68
2021/07/02 03:20:15;;;;;;;6.47;4.30;;;12.20;99.90;;;;;;5088839;28;19916;-69
2021/07/02 03:22:43;;;;;;;;;;;12.20;99.90;;;;;;5088344;28;20552;-69
2021/07/02 03:25:09;;;;;;;11.23;6.05;;;12.20;99.90;;;;;;5088550;28;19916;-68
2021/07/02 03:27:35;;;;;;;12.50;6.55;;;12.20;99.90;;;;;;5084373;28;20036;-69
2021/07/02 03:30:01;;;;;;;;;;;12.10;99.90;;;;;;5088658;28;20028;-69
2021/07/02 03:32:27;;;;;;;8.07;5.85;;;12.10;99.90;;;;;;5087530;28;19962;-65
2021/07/02 03:34:52;;;;;;;;;;;12.10;99.90;;;;;;5082243;28;20068;-70
2021/07/02 03:37:18;;;;;;;11.15;6.50;;;12.20;99.90;;;;;;5078874;28;19920;-68
2021/07/02 03:39:45;;;;;;;12.55;7.32;;;12.20;99.90;;;;;;5088869;28;20503;-70
2021/07/02 03:42:11;;;;;;;13.57;7.15;;;12.20;99.90;;;;;;5086445;28;20040;-69
2021/07/02 03:44:36;;;;;;;;;;;12.20;99.90;;;;;;5088866;28;20039;-68
2021/07/02 03:47:02;;;;;;;14.82;8.55;;;12.20;99.90;;;;;;5087272;28;19971;-68
2021/07/02 03:49:28;;;;;;;15.57;8.75;;;12.10;99.90;;;;;;5088744;28;20039;-68
2021/07/02 03:51:54;;;;;;;;;;;12.10;99.90;;;;;;5087721;28;20563;-69
2021/07/02 03:54:20;;;;;;;17.35;10.05;;;12.10;99.90;;;;;;5072421;28;20467;-68
2021/07/02 03:59:30;;;;;;;19.20;10.73;;;12.10;99.90;;;;;;5071721;28;19982;-67
2021/07/02 04:01:56;;;;;;;;;;;12.10;99.90;;;;;;5071683;28;20498;-68
2021/07/02 04:04:22;;;;;;;18.75;10.40;;;12.10;99.90;;;;;;5076691;28;19916;-68
2021/07/02 04:06:47;;;;;;;;;;;12.10;99.90;;;;;;5092608;28;20036;-70
2021/07/02 04:09:13;;;;;;;20.35;11.23;;;12.10;99.90;;;;;;5091247;28;20478;-69
2021/07/02 04:11:39;;;;;;;;;;;12.20;99.90;;;;;;5091149;28;20479;-70
2021/07/02 04:14:04;;;;;;;18.42;10.85;;;12.20;99.90;;;;;;5092158;28;19916;-70
2021/07/02 04:16:30;;;;;;;;;;;12.20;99.90;;;;;;5090926;28;20040;-69
2021/07/02 04:18:56;;;;;;;19.38;9.63;;;12.20;99.90;;;;;;5091439;28;20360;-69
2021/07/02 04:21:21;;;;;;;;;;;12.20;99.90;;;;;;5087659;28;20043;-69
2021/07/02 04:23:47;;;;;;;17.35;10.32;;;12.20;99.90;;;;;;5091586;28;19928;-70
2021/07/02 04:26:12;;;;;;;;;;;12.30;99.90;;;;;;5091791;28;20146;-69
2021/07/02 04:28:38;;;;;;;18.65;10.35;;;12.30;99.90;;;;;;5090914;28;20013;-69
2021/07/02 04:31:04;;;;;;;;;;;12.20;99.90;;;;;;5091021;28;20032;-69
2021/07/02 04:33:29;;;;;;;16.77;10.10;;;12.20;99.90;;;;;;5091078;28;19922;-69
2021/07/02 04:35:55;;;;;;;;;;;12.20;99.90;;;;;;5083639;28;20047;-69
2021/07/02 04:38:20;;;;;;;23.77;10.70;;;12.20;99.90;;;;;;5090437;28;19919;-68
2021/07/02 04:40:48;;;;;;;;;;;12.20;99.90;;;;;;5091279;28;20044;-68
2021/07/02 04:43:13;;;;;;;;;;;12.20;99.90;;;;;;5091821;28;19916;-69
2021/07/02 04:45:40;;;;;;;19.63;10.68;;;12.20;99.90;;;;;;5092929;28;19949;-68
2021/07/02 04:48:06;;;;;;;23.38;11.30;;;12.10;99.90;;;;;;5111508;28;20578;-69
2021/07/02 04:50:32;;;;;;;;;;;12.10;99.90;;;;;;5111384;28;20123;-71
2021/07/02 04:52:57;;;;;;;22.77;12.18;;;12.20;99.90;;;;;;5108413;28;19926;-69
2021/07/02 04:55:23;;;;;;;;;;;12.20;99.90;;;;;;5111279;28;20043;-68
2021/07/02 04:57:48;;;;;;;25.85;12.63;;;12.20;99.90;;;;;;5110078;28;19994;-69
2021/07/02 05:00:14;;;;;;;;;;;12.20;99.90;;;;;;5111803;27;20039;-69
2021/07/02 05:02:40;;;;;;;32.08;12.50;;;12.20;99.90;;;;;;5101613;28;19920;-70
2021/07/02 05:05:06;;;;;;;;;;;12.10;99.90;;;;;;5090937;28;20043;-70
2021/07/02 05:07:32;;;;;;;26.55;12.32;;;12.20;99.90;;;;;;5109171;28;20018;-69
2021/07/02 05:09:58;;;;;;;;;;;12.10;99.90;;;;;;5096507;28;20035;-69
2021/07/02 05:12:24;;;;;;;30.13;13.68;;;12.10;99.90;;;;;;5090253;28;19931;-68
2021/07/02 05:14:50;;;;;;;;;;;12.10;99.90;;;;;;5101032;28;20036;-69
2021/07/02 05:17:15;;;;;;;28.35;13.32;;;12.10;99.90;;;;;;5102153;27;19996;-69
2021/07/02 05:19:41;;;;;;;;;;;12.10;99.90;;;;;;5100709;28;20048;-69
2021/07/02 05:22:17;;;;;;;31.75;12.82;;;12.20;99.90;;;;;;5089599;28;19981;-69
2021/07/02 05:24:43;;;;;;;29.60;14.65;;;12.20;99.90;;;;;;5088851;28;20043;-69
2021/07/02 05:27:09;;;;;;;35.75;15.70;;;12.20;99.90;;;;;;5092225;28;20067;-69
2021/07/02 05:29:34;;;;;;;;;;;12.20;99.90;;;;;;5099074;28;20153;-69
2021/07/02 05:32:00;;;;;;;30.13;14.43;;;12.20;99.90;;;;;;5089398;28;19916;-68
2021/07/02 05:34:26;;;;;;;;;;;12.20;99.90;;;;;;5094777;28;20505;-68
2021/07/02 05:36:51;;;;;;;36.53;17.15;;;12.20;99.90;;;;;;5095885;28;20580;-70
2021/07/02 05:39:17;;;;;;;;;;;12.20;99.90;;;;;;5098529;28;20093;-69
2021/07/02 05:41:42;;;;;;;34.47;16.92;;;12.20;99.90;;;;;;5101282;28;19967;-70
2021/07/02 05:44:08;;;;;;;;;;;12.20;99.90;;;;;;5100519;28;20046;-69
2021/07/02 05:46:33;;;;;;;40.08;17.58;;;12.30;99.90;;;;;;5098486;28;19920;-70
2021/07/02 05:48:59;;;;;;;;;;;12.20;99.90;;;;;;5098635;28;20487;-69
2021/07/02 05:51:25;;;;;;;40.15;17.52;;;12.30;99.90;;;;;;5098861;28;20779;-69
2021/07/02 05:53:50;;;;;;;;;;;12.30;99.90;;;;;;5097724;28;20034;-69
2021/07/02 05:56:16;;;;;;;50.67;20.23;;;12.30;99.90;;;;;;5098485;28;20272;-69
2021/07/02 05:58:41;;;;;;;;;;;12.20;99.90;;;;;;5100032;28;20035;-69
2021/07/02 06:01:07;;;;;;;40.25;18.38;;;12.20;99.90;;;;;;5105594;28;19923;-70
2021/07/02 06:03:33;;;;;;;;;;;12.20;99.90;;;;;;5110631;28;20077;-68
2021/07/02 06:05:58;;;;;;;48.08;20.23;;;12.20;99.90;;;;;;5108043;28;19930;-70
2021/07/02 06:08:24;;;;;;;;;;;12.20;99.90;;;;;;5098755;28;20652;-68
2021/07/02 06:10:49;;;;;;;40.08;19.13;;;12.20;99.90;;;;;;5088693;28;19920;-70
2021/07/02 06:13:15;;;;;;;;;;;12.30;99.90;;;;;;5087728;28;20513;-69
2021/07/02 06:15:41;;;;;;;56.63;22.23;;;12.30;99.90;;;;;;5088258;28;20268;-68
2021/07/02 06:18:07;;;;;;;;;;;12.30;99.90;;;;;;5089325;28;20529;-68
2021/07/02 06:20:33;;;;;;;60.57;26.10;;;12.20;99.90;;;;;;5088490;28;20574;-70
2021/07/02 06:22:58;;;;;;;;;;;12.30;99.90;;;;;;5090389;28;20047;-71
2021/07/02 06:25:24;;;;;;;48.78;21.20;;;12.30;99.90;;;;;;5091467;28;19920;-70
2021/07/02 06:27:49;;;;;;;;;;;12.30;99.90;;;;;;5096930;28;20036;-69
2021/07/02 06:30:15;;;;;;;53.03;21.75;;;12.30;99.90;;;;;;5089458;28;19916;-72
2021/07/02 06:32:41;;;;;;;53.50;19.08;;;12.30;99.90;;;;;;5089488;28;20664;-70
2021/07/02 06:35:07;;;;;;;;;;;12.30;99.90;;;;;;5100517;28;20048;-67
2021/07/02 06:37:33;;;;;;;49.40;20.35;;;12.30;99.90;;;;;;5097412;28;19938;-70
2021/07/02 06:39:58;;;;;;;;;;;12.30;99.90;;;;;;5089975;28;20484;-70
2021/07/02 06:42:24;;;;;;;43.97;17.85;;;12.30;99.90;;;;;;5087840;28;20401;-69
2021/07/02 06:44:49;;;;;;;;;;;12.40;99.90;;;;;;5088233;28;20040;-69
2021/07/02 06:47:15;;;;;;;36.33;14.80;;;12.40;99.90;;;;;;5088873;28;19920;-69
2021/07/02 06:49:40;;;;;;;;;;;12.40;99.90;;;;;;5088948;28;20487;-70
2021/07/02 06:52:07;;;;;;;32.40;13.55;;;12.50;99.90;;;;;;5088344;28;20398;-70
2021/07/02 06:54:33;;;;;;;29.15;13.00;;;12.50;99.90;;;;;;5088833;28;20051;-69
2021/07/02 06:57:07;;;;;;;;;;;12.60;99.90;;;;;;5099178;28;20418;-70
2021/07/02 06:59:37;;;;;;;28.80;13.80;;;12.70;99.90;;;;;;5109439;28;20397;-69
2021/07/02 07:02:04;;;;;;;28.45;13.13;;;12.70;99.90;;;;;;5107586;28;20036;-70
2021/07/02 07:04:34;;;;;;;25.45;13.30;;;12.80;99.90;;;;;;5105867;28;20050;-69
2021/07/02 07:07:04;;;;;;;30.70;12.80;;;12.70;99.90;;;;;;5097040;28;20040;-70
2021/07/02 07:09:31;;;;;;;33.38;14.60;;;12.80;99.90;;;;;;5088170;28;20044;-70
2021/07/02 07:11:57;;;;;;;25.70;12.98;;;12.80;99.90;;;;;;5097682;28;20048;-71
2021/07/02 07:14:22;;;;;;;;;;;12.90;99.90;;;;;;5095512;28;20569;-69
2021/07/02 07:16:48;;;;;;;30.42;12.07;;;12.80;99.90;;;;;;5101631;28;20511;-70
2021/07/02 07:19:14;;;;;;;;;;;12.80;99.90;;;;;;5108969;28;20043;-70
2021/07/02 07:21:40;;;;;;;19.73;10.57;;;12.80;99.90;;;;;;5108565;28;19951;-70
2021/07/02 07:24:05;;;;;;;;;;;12.90;99.90;;;;;;5109823;28;20452;-70
2021/07/02 07:26:31;;;;;;;21.92;10.68;;;12.90;99.90;;;;;;5100361;28;19962;-70
2021/07/02 07:28:57;;;;;;;;;;;12.90;99.90;;;;;;5112227;28;20036;-70
2021/07/02 07:31:22;;;;;;;21.20;11.23;;;12.80;99.90;;;;;;5111008;28;19942;-70
2021/07/02 07:33:50;;;;;;;;;;;12.80;99.90;;;;;;5113807;28;20036;-70
2021/07/02 07:36:16;;;;;;;28.73;11.88;;;12.80;99.90;;;;;;5095502;28;19916;-70
2021/07/02 07:38:42;;;;;;;;;;;12.90;99.90;;;;;;5099775;27;20477;-70
2021/07/02 07:41:08;;;;;;;22.90;11.27;;;12.90;99.90;;;;;;5092539;28;20367;-70
2021/07/02 07:43:34;;;;;;;;;;;12.90;99.90;;;;;;5092568;28;20089;-70
2021/07/02 07:46:01;;;;;;;24.77;11.85;;;12.90;99.90;;;;;;5091484;28;20446;-71
2021/07/02 07:48:26;;;;;;;26.48;12.60;;;12.90;99.90;;;;;;5092131;28;20082;-70
2021/07/02 07:51:00;;;;;;;;;;;12.90;99.90;;;;;;5092104;28;20075;-70
2021/07/02 07:53:26;;;;;;;25.92;14.13;;;12.90;99.90;;;;;;5092263;28;19920;-70
2021/07/02 07:55:51;;;;;;;;;;;12.90;99.90;;;;;;5093930;28;20580;-70
2021/07/02 07:58:17;;;;;;;20.80;12.32;;;13.00;99.90;;;;;;5112524;28;19970;-70
2021/07/02 08:00:42;;;;;;;;;;;13.00;99.90;;;;;;5111678;28;20153;-70
2021/07/02 08:03:08;;;;;;;20.38;11.52;;;13.00;99.90;;;;;;5112505;28;19992;-70
2021/07/02 08:05:33;;;;;;;;;;;13.00;99.90;;;;;;5104354;28;20036;-70
2021/07/02 08:07:59;;;;;;;24.65;11.55;;;12.90;99.90;;;;;;5103799;28;19923;-70
2021/07/02 08:10:26;;;;;;;;;;;13.00;99.90;;;;;;5112761;28;20116;-70
2021/07/02 08:12:52;;;;;;;26.38;12.23;;;13.00;99.90;;;;;;5111744;28;20004;-70
2021/07/02 08:15:18;;;;;;;;;;;13.00;99.90;;;;;;5112318;27;20070;-70
2021/07/02 08:17:44;;;;;;;23.52;13.35;;;13.00;99.90;;;;;;5109010;28;19943;-70
2021/07/02 08:20:10;;;;;;;23.15;12.57;;;13.00;99.90;;;;;;5101740;28;20035;-70
2021/07/02 08:22:37;;;;;;;23.33;12.40;;;13.00;99.90;;;;;;5091664;28;20518;-71
2021/07/02 08:25:03;;;;;;;22.45;12.45;;;13.00;99.90;;;;;;5091255;28;20123;-71
2021/07/02 08:27:33;;;;;;;23.58;14.05;;;13.10;99.90;;;;;;5090237;28;20104;-70
2021/07/02 08:29:59;;;;;;;27.48;14.68;;;13.10;99.90;;;;;;5091327;28;20800;-71
2021/07/02 08:32:24;;;;;;;;;;;13.10;99.90;;;;;;5091041;28;20061;-71
2021/07/02 08:34:50;;;;;;;21.95;12.93;;;13.10;99.90;;;;;;5103761;28;19925;-70
2021/07/02 08:37:15;;;;;;;;;;;13.10;99.90;;;;;;5098607;28;20126;-70
2021/07/02 08:39:41;;;;;;;22.90;13.15;;;13.10;99.90;;;;;;5091706;28;19922;-71
2021/07/02 08:42:08;;;;;;;;;;;13.20;99.90;;;;;;5103881;28;20027;-72
2021/07/02 08:44:34;;;;;;;34.97;17.45;;;13.20;99.90;;;;;;5101728;28;19927;-70
2021/07/02 08:47:00;;;;;;;;;;;13.10;99.90;;;;;;5101403;28;20040;-70
2021/07/02 08:49:30;;;;;;;29.45;16.48;;;13.20;99.90;;;;;;5102556;27;20298;-70
2021/07/02 08:51:56;;;;;;;32.97;15.80;;;13.20;99.90;;;;;;5102085;28;20036;-70
2021/07/02 08:54:21;;;;;;;;;;;13.20;99.90;;;;;;5102797;28;20047;-70
2021/07/02 08:56:56;;;;;;;26.85;13.63;;;13.00;99.90;;;;;;5097517;28;19919;-69
2021/07/02 08:59:27;;;;;;;25.23;13.70;;;13.10;99.90;;;;;;5098505;28;20048;-70
2021/07/02 09:01:53;;;;;;;28.35;13.77;;;13.10;99.90;;;;;;5088887;28;20047;-70
2021/07/02 09:04:23;;;;;;;21.45;12.07;;;13.10;99.90;;;;;;5090955;28;20031;-70
2021/07/02 09:07:08;;;;;;;25.45;12.05;;;13.10;99.90;;;;;;5097672;28;20040;-70
2021/07/02 09:09:49;;;;;;;35.55;19.20;;;13.00;99.90;;;;;;5089304;28;20412;-70
2021/07/02 09:12:16;;;;;;;24.63;12.95;;;13.10;99.90;;;;;;5090800;28;20117;-70
2021/07/02 09:15:14;;;;;;;26.52;14.30;;;13.10;99.90;;;;;;5090074;28;20044;-70
2021/07/02 09:17:46;;;;;;;26.10;13.95;;;13.20;99.90;;;;;;5056899;28;20103;-70
2021/07/02 09:20:14;;;;;;;36.40;23.17;;;13.20;99.90;;;;;;5090526;28;20403;-70
2021/07/02 09:23:00;;;;;;;27.83;15.85;;;13.20;99.90;;;;;;5089366;28;20042;-70
2021/07/02 09:25:48;;;;;;;19.90;11.20;;;13.20;99.90;;;;;;5088997;28;20053;-70
2021/07/02 09:28:18;;;;;;;19.98;11.00;;;13.30;99.90;;;;;;5088985;28;20282;-70
2021/07/02 09:30:53;;;;;;;21.23;9.98;;;13.30;99.90;;;;;;5088858;28;20040;-71
2021/07/02 09:33:22;;;;;;;22.30;12.13;;;13.40;99.90;;;;;;5094518;28;20028;-69
2021/07/02 09:35:51;;;;;;;25.95;15.35;;;13.30;99.90;;;;;;5100936;28;20042;-70
2021/07/02 09:38:35;;;;;;;22.70;12.48;;;13.30;99.90;;;;;;5098261;28;20040;-70
2021/07/02 09:41:01;;;;;;;26.33;12.27;;;13.30;99.90;;;;;;5098540;28;20115;-70
2021/07/02 09:43:29;;;;;;;22.15;12.73;;;13.30;99.90;;;;;;5096377;28;20040;-71
2021/07/02 09:46:04;;;;;;;19.45;11.20;;;13.40;99.90;;;;;;5102147;28;20044;-71
2021/07/02 09:48:32;;;;;;;22.45;12.75;;;13.40;99.90;;;;;;5099016;28;20039;-70
2021/07/02 09:51:05;;;;;;;23.88;14.35;;;13.40;99.90;;;;;;5094713;28;20039;-70
2021/07/02 09:53:34;;;;;;;27.15;15.13;;;13.50;99.90;;;;;;5100027;28;20579;-70
2021/07/02 09:56:01;;;;;;;27.30;14.18;;;13.40;99.90;;;;;;5098372;28;20176;-69
2021/07/02 09:58:29;;;;;;;31.45;15.63;;;13.40;99.90;;;;;;5099011;28;20108;-70
2021/07/02 10:01:00;;;;;;;30.83;16.50;;;13.50;99.90;;;;;;5093988;28;20035;-70
2021/07/02 10:03:36;;;;;;;28.55;14.32;;;13.40;99.90;;;;;;5099363;28;20044;-70
2021/07/02 10:06:02;;;;;;;24.80;14.32;;;13.40;99.90;;;;;;5101459;28;20051;-70
2021/07/02 10:08:29;;;;;;;;;;;13.40;99.90;;;;;;5096761;28;20040;-69
2021/07/02 10:10:56;;;;;;;34.42;19.20;;;13.40;99.90;;;;;;5087419;28;19927;-69
2021/07/02 10:13:26;;;;;;;34.30;16.73;;;13.50;99.90;;;;;;5093823;28;20162;-69
2021/07/02 10:15:52;;;;;;;34.35;17.35;;;13.50;99.90;;;;;;5107882;28;20043;-69
2021/07/02 10:18:20;;;;;;;27.75;17.05;;;13.40;99.90;;;;;;5109665;28;20503;-70
2021/07/02 10:20:46;;;;;;;31.00;17.15;;;13.50;99.90;;;;;;5108295;28;20040;-70
2021/07/02 10:23:16;;;;;;;37.67;20.55;;;13.30;99.90;;;;;;5107576;28;20035;-70
2021/07/02 10:25:46;;;;;;;35.00;20.85;;;13.30;99.90;;;;;;5100856;28;20114;-70
2021/07/02 10:28:13;;;;;;;42.30;20.70;;;13.40;99.90;;;;;;5100732;28;20641;-69
2021/07/02 10:30:40;;;;;;;37.90;19.05;;;13.50;99.90;;;;;;5092325;28;20040;-70
2021/07/02 10:33:06;;;;;;;37.67;19.92;;;13.50;99.90;;;;;;5096950;28;20044;-69
2021/07/02 10:35:33;;;;;;;;;;;13.60;99.90;;;;;;5095808;28;20036;-69
2021/07/02 10:38:00;;;;;;;41.72;20.60;;;13.70;99.90;;;;;;5096436;28;20004;-70
2021/07/02 10:40:42;;;;;;;34.78;18.58;;;13.70;99.90;;;;;;5096515;28;20048;-69
2021/07/02 10:43:19;;;;;;;33.10;18.23;;;13.70;99.90;;;;;;5096789;28;20070;-70
2021/07/02 10:46:09;;;;;;;33.88;18.80;;;13.80;99.90;;;;;;5100207;28;20460;-69
2021/07/02 10:48:56;;;;;;;31.17;18.65;;;13.80;99.90;;;;;;5101856;28;20122;-70
2021/07/02 10:51:30;;;;;;;33.78;19.67;;;13.90;99.90;;;;;;5091463;28;20048;-69
2021/07/02 10:54:18;;;;;;;33.85;16.75;;;13.90;99.90;;;;;;5096276;28;20047;-70
2021/07/02 10:56:56;;;;;;;28.52;16.48;;;14.00;99.90;;;;;;5098643;28;20055;-69
2021/07/02 10:59:42;;;;;;;27.50;17.10;;;14.10;99.90;;;;;;5097017;28;20712;-69
2021/07/02 11:02:13;;;;;;;29.48;16.40;;;14.10;99.90;;;;;;5098737;28;20395;-70
2021/07/02 11:04:40;;;;;;;31.02;16.70;;;14.30;99.90;;;;;;5088364;28;20036;-70
2021/07/02 11:07:11;;;;;;;32.20;15.70;;;14.60;99.90;;;;;;5094234;28;20176;-68
2021/07/02 11:12:20;;;;;;;23.70;14.65;;;14.90;99.90;;;;;;5086392;28;20044;-65
2021/07/02 11:14:51;;;;;;;19.73;13.23;;;14.80;99.90;;;;;;5079406;28;20043;-68
2021/07/02 11:17:20;;;;;;;22.52;13.43;;;14.70;99.90;;;;;;5088729;28;20069;-68
2021/07/02 11:19:46;;;;;;;23.30;13.15;;;14.70;99.90;;;;;;5088655;28;20040;-64
2021/07/02 11:22:27;;;;;;;20.48;13.00;;;14.70;99.90;;;;;;5087926;28;20056;-67
2021/07/02 11:25:07;;;;;;;26.30;13.75;;;14.70;99.90;;;;;;5071104;28;20089;-68
2021/07/02 11:27:51;;;;;;;23.83;14.88;;;14.70;99.90;;;;;;5087901;28;20109;-68
2021/07/02 11:30:36;;;;;;;24.35;13.05;;;14.80;99.90;;;;;;5086203;28;20036;-67
2021/07/02 11:33:07;;;;;;;29.13;13.27;;;14.90;99.90;;;;;;5079834;28;20063;-66
2021/07/02 11:35:36;;;;;;;24.02;12.98;;;14.90;99.90;;;;;;5075240;28;20032;-65
2021/07/02 11:38:07;;;;;;;21.10;13.90;;;14.90;99.90;;;;;;5075285;28;20036;-68
2021/07/02 11:40:55;;;;;;;21.92;12.60;;;14.90;99.90;;;;;;5057588;28;20101;-66
2021/07/02 11:43:22;;;;;;;20.33;13.60;;;14.80;99.90;;;;;;5084575;28;20654;-65
2021/07/02 11:45:53;;;;;;;22.65;12.90;;;14.80;99.90;;;;;;5077681;28;20032;-66
2021/07/02 11:48:19;;;;;;;28.02;15.18;;;14.80;99.90;;;;;;5087882;28;20126;-66
2021/07/02 11:50:45;;;;;;;;;;;14.80;99.90;;;;;;5088001;28;20123;-66
2021/07/02 11:53:28;;;;;;;23.25;12.82;;;14.80;99.90;;;;;;5076997;28;19923;-66
2021/07/02 11:56:03;;;;;;;23.70;12.90;;;14.90;99.90;;;;;;5069863;28;20041;-65
2021/07/02 11:58:33;;;;;;;21.50;13.35;;;14.90;99.90;;;;;;5088602;28;20111;-66
2021/07/02 12:01:03;;;;;;;24.35;14.45;;;14.90;99.90;;;;;;5087227;28;20420;-66
2021/07/02 12:03:29;;;;;;;24.73;14.23;;;14.80;99.90;;;;;;5087885;28;20051;-67
2021/07/02 12:05:55;;;;;;;;;;;14.90;99.90;;;;;;5081263;28;20396;-67
2021/07/02 12:08:23;;;;;;;25.25;14.10;;;14.90;99.90;;;;;;5078633;28;19915;-66
2021/07/02 12:11:05;;;;;;;21.98;13.18;;;14.90;99.90;;;;;;5087631;28;20728;-66
2021/07/02 12:13:33;;;;;;;24.92;14.00;;;14.90;99.90;;;;;;5088780;28;20039;-66
2021/07/02 12:16:11;;;;;;;19.73;12.30;;;14.90;99.90;;;;;;5088485;28;21514;-66
2021/07/02 12:18:39;;;;;;;25.27;14.85;;;14.90;99.90;;;;;;5079637;28;20040;-66
2021/07/02 12:21:10;;;;;;;22.25;13.27;;;14.90;99.90;;;;;;5070848;28;20516;-67
2021/07/02 12:23:40;;;;;;;18.10;12.65;;;14.90;99.90;;;;;;5071632;28;20036;-67
2021/07/02 12:26:15;;;;;;;19.13;12.15;;;14.90;99.90;;;;;;5070708;28;20044;-67
2021/07/02 12:29:07;;;;;;;26.15;12.82;;;14.90;99.90;;;;;;5071231;28;20052;-67
2021/07/02 12:31:52;;;;;;;22.63;11.60;;;14.90;99.90;;;;;;5066266;28;20128;-66
2021/07/02 12:34:33;;;;;;;20.30;12.00;;;15.10;99.90;;;;;;5084689;28;20452;-67
2021/07/02 12:37:08;;;;;;;18.45;12.10;;;15.10;99.90;;;;;;5075650;28;20072;-67
2021/07/02 12:39:35;;;;;;;20.80;12.53;;;15.10;99.90;;;;;;5071172;28;20488;-66
2021/07/02 12:42:03;;;;;;;18.65;11.43;;;15.30;99.90;;;;;;5070269;28;20040;-67
2021/07/02 12:44:31;;;;;;;22.08;12.55;;;15.30;99.90;;;;;;5070789;28;20048;-67
2021/07/02 12:46:57;;;;;;;17.63;11.07;;;15.50;99.90;;;;;;5070948;28;20753;-67
2021/07/02 12:49:43;;;;;;;17.08;9.90;;;15.60;99.90;;;;;;5070708;28;20051;-66
2021/07/02 12:55:01;;;;;;;13.43;10.30;;;16.20;99.90;;;;;;5075837;28;20495;-65
2021/07/02 12:57:39;;;;;;;17.23;9.60;;;16.50;99.90;;;;;;5076505;28;20133;-65
2021/07/02 13:00:11;;;;;;;14.20;9.82;;;16.80;99.90;;;;;;5071314;28;20037;-66
2021/07/02 13:02:38;;;;;;;15.52;9.57;;;16.80;99.90;;;;;;5068844;28;20040;-66
2021/07/02 13:05:11;;;;;;;16.02;9.32;;;16.40;99.90;;;;;;5077904;28;20047;-67
2021/07/02 13:07:54;;;;;;;11.60;8.32;;;16.50;99.90;;;;;;5079400;28;20452;-66
2021/07/02 13:10:21;;;;;;;14.75;8.88;;;16.80;99.90;;;;;;5070095;28;20711;-66
2021/07/02 13:13:06;;;;;;;12.02;8.18;;;16.90;98.40;;;;;;5070423;28;20509;-66